Time;durP1;ratioP1;P1;durP2;ratioP2;P2;SDS_P1;SDS_P2;PMS_P1;PMS_P2;Temp;Humidity;BMP_temperature;BMP_pressure;BME280_temperature;BME280_humidity;BME280_pressure;Samples;Min_cycle;Max_cycle;Signal;HPM_P1;HPM_P2
2023/09/05 00:02:27;;;;;;;2.90;1.60;;;;;;;21.70;31.92;101613.59;5007276;28;20187;-71
2023/09/05 00:04:55;;;;;;;2.35;1.45;;;;;;;21.71;31.97;101611.69;5024278;28;20410;-71
2023/09/05 00:07:23;;;;;;;2.35;1.50;;;;;;;21.70;31.87;101612.72;5025550;28;20049;-71
2023/09/05 00:09:52;;;;;;;3.03;1.50;;;;;;;21.72;31.77;101608.72;5024427;28;20120;-71
2023/09/05 00:12:20;;;;;;;3.17;1.45;;;;;;;21.70;31.84;101608.03;5032486;28;20057;-71
2023/09/05 00:14:48;;;;;;;3.97;1.85;;;;;;;21.71;31.91;101594.97;5025623;28;20042;-71
2023/09/05 00:17:16;;;;;;;2.50;1.38;;;;;;;21.70;31.69;101594.09;5029377;28;20061;-71
2023/09/05 00:19:44;;;;;;;2.20;1.60;;;;;;;21.71;31.57;101594.97;5027534;28;20049;-71
2023/09/05 00:22:12;;;;;;;2.60;1.48;;;;;;;21.69;31.81;101594.28;5027608;28;20069;-71
2023/09/05 00:24:40;;;;;;;2.50;1.45;;;;;;;21.69;31.54;101597.94;5026890;28;20631;-70
2023/09/05 00:27:11;;;;;;;2.72;1.42;;;;;;;21.71;31.67;101600.53;5026626;28;20700;-71
2023/09/05 00:29:40;;;;;;;2.88;1.67;;;;;;;21.69;31.88;101602.63;5026587;28;20108;-71
2023/09/05 00:32:09;;;;;;;3.15;1.63;;;;;;;21.67;31.74;101597.28;5028910;28;20038;-71
2023/09/05 00:34:38;;;;;;;2.88;1.75;;;;;;;21.68;31.85;101598.16;5025995;28;20037;-71
2023/09/05 00:37:07;;;;;;;3.03;1.50;;;;;;;21.68;31.93;101595.38;5026077;28;20225;-71
2023/09/05 00:39:40;;;;;;;2.67;1.60;;;;;;;21.66;32.16;101589.09;5007344;28;20539;-72
2023/09/05 00:42:10;;;;;;;3.08;1.55;;;;;;;21.67;32.00;101594.50;5026226;28;20176;-71
2023/09/05 00:44:39;;;;;;;3.08;1.63;;;;;;;21.64;31.82;101588.41;5010132;28;20042;-72
2023/09/05 00:47:07;;;;;;;2.80;1.50;;;;;;;21.66;32.00;101591.88;5027926;28;20045;-71
2023/09/05 00:49:47;;;;;;;2.90;1.55;;;;;;;21.64;32.10;101600.44;5025883;28;20096;-72
2023/09/05 00:52:16;;;;;;;3.03;1.70;;;;;;;21.63;31.93;101592.25;5025134;28;20045;-72
2023/09/05 00:54:44;;;;;;;2.70;1.50;;;;;;;21.63;31.83;101589.47;5024366;28;20038;-71
2023/09/05 00:57:14;;;;;;;2.80;1.70;;;;;;;21.64;31.83;101586.50;5009926;28;20461;-71
2023/09/05 00:59:43;;;;;;;4.20;1.60;;;;;;;21.61;32.02;101586.88;5007941;28;20037;-71
2023/09/05 01:02:11;;;;;;;2.97;1.75;;;;;;;21.61;32.11;101583.22;5026103;28;20124;-71
2023/09/05 01:04:41;;;;;;;2.35;1.35;;;;;;;21.61;31.87;101580.44;5006260;28;20516;-71
2023/09/05 01:07:17;;;;;;;2.75;1.63;;;;;;;21.62;31.89;101583.03;5019859;28;20061;-72
2023/09/05 01:09:54;;;;;;;2.75;1.40;;;;;;;21.62;31.58;101585.81;5027161;28;20060;-71
2023/09/05 01:12:24;;;;;;;3.33;1.63;;;;;;;21.58;31.94;101578.91;5006195;28;20049;-71
2023/09/05 01:14:52;;;;;;;3.65;1.63;;;;;;;21.56;31.73;101580.16;5010383;28;20505;-72
2023/09/05 01:17:21;;;;;;;3.75;1.83;;;;;;;21.54;31.60;101577.53;5021458;28;20055;-72
2023/09/05 01:19:56;;;;;;;3.22;1.65;;;;;;;21.55;31.80;101590.44;5018130;28;20045;-72
2023/09/05 01:22:34;;;;;;;3.30;1.65;;;;;;;21.54;31.85;101588.69;5020207;28;20424;-75
2023/09/05 01:25:03;;;;;;;2.92;1.50;;;;;;;21.52;32.11;101593.56;5026972;28;20124;-72
2023/09/05 01:27:32;;;;;;;2.42;1.52;;;;;;;21.50;31.91;101592.91;5023373;28;20041;-72
2023/09/05 01:30:05;;;;;;;2.55;1.45;;;;;;;21.50;31.74;101593.78;5041266;28;20052;-71
2023/09/05 01:32:33;;;;;;;2.30;1.50;;;;;;;21.48;31.83;101590.31;5024095;28;20044;-71
2023/09/05 01:35:01;;;;;;;3.00;1.42;;;;;;;21.48;31.67;101593.09;5022215;28;20042;-72
2023/09/05 01:37:29;;;;;;;2.53;1.33;;;;;;;21.46;31.50;101589.63;5024533;28;20056;-72
2023/09/05 01:39:57;;;;;;;2.67;1.50;;;;;;;21.46;31.43;101594.34;5023951;28;20167;-72
2023/09/05 01:42:26;;;;;;;3.00;1.80;;;;;;;21.47;31.86;101598.84;5009911;28;20123;-72
2023/09/05 01:44:54;;;;;;;2.42;1.50;;;;;;;21.43;31.72;101583.59;5026088;28;20041;-72
2023/09/05 01:47:22;;;;;;;2.90;1.52;;;;;;;21.42;31.52;101579.94;5007328;28;20041;-72
2023/09/05 01:49:50;;;;;;;2.58;1.50;;;;;;;21.41;31.75;101578.22;5005022;28;20373;-71
2023/09/05 01:52:18;;;;;;;2.58;1.52;;;;;;;21.40;31.58;101582.03;5026172;28;20057;-71
2023/09/05 01:54:46;;;;;;;3.33;1.80;;;;;;;21.39;31.60;101574.75;5022793;28;20464;-71
2023/09/05 01:57:14;;;;;;;3.08;1.60;;;;;;;21.39;31.78;101576.66;5020850;28;20479;-72
2023/09/05 01:59:43;;;;;;;2.40;1.60;;;;;;;21.39;31.67;101579.44;5022965;28;20132;-72
2023/09/05 02:02:11;;;;;;;2.80;1.60;;;;;;;21.35;31.58;101570.63;5028571;28;20512;-71
2023/09/05 02:04:39;;;;;;;2.60;1.40;;;;;;;21.34;31.47;101576.38;5010259;28;20038;-71
2023/09/05 02:07:08;;;;;;;2.65;1.63;;;;;;;21.32;31.59;101570.97;5021190;28;20053;-71
2023/09/05 02:09:36;;;;;;;3.05;1.52;;;;;;;21.31;31.38;101576.72;5036182;28;20557;-71
2023/09/05 02:12:05;;;;;;;3.20;1.85;;;;;;;21.29;31.27;101579.69;5026142;28;20553;-72
2023/09/05 02:14:35;;;;;;;2.50;1.42;;;;;;;21.27;31.42;101575.38;5027136;28;20055;-71
2023/09/05 02:17:04;;;;;;;2.75;1.65;;;;;;;21.27;31.48;101578.19;5030735;28;20044;-71
2023/09/05 02:19:32;;;;;;;2.63;1.40;;;;;;;21.24;31.71;101575.72;5006244;28;20050;-72
2023/09/05 02:22:02;;;;;;;2.60;1.50;;;;;;;21.22;31.77;101567.56;5023114;28;20540;-72
2023/09/05 02:24:30;;;;;;;2.90;1.60;;;;;;;21.21;31.51;101562.16;5008817;28;20141;-71
2023/09/05 02:26:58;;;;;;;3.35;1.60;;;;;;;21.19;31.14;101558.72;5024489;28;20065;-72
2023/09/05 02:29:28;;;;;;;2.97;1.90;;;;;;;21.21;31.32;101570.50;5006459;28;20047;-71
2023/09/05 02:31:56;;;;;;;3.05;1.50;;;;;;;21.16;31.21;101568.31;5041551;28;20053;-72
2023/09/05 02:34:25;;;;;;;2.40;1.30;;;;;;;21.14;31.18;101568.50;5027411;28;20048;-72
2023/09/05 02:36:54;;;;;;;3.42;1.70;;;;;;;21.11;31.18;101566.06;5027372;28;20116;-70
2023/09/05 02:39:22;;;;;;;2.63;1.58;;;;;;;21.09;31.21;101570.09;5004909;28;20044;-71
2023/09/05 02:41:50;;;;;;;2.75;1.55;;;;;;;21.08;31.37;101571.16;5030013;28;20512;-72
2023/09/05 02:44:18;;;;;;;2.83;1.40;;;;;;;21.05;31.25;101568.72;5030192;28;20338;-72
2023/09/05 02:46:46;;;;;;;2.72;1.45;;;;;;;21.03;31.32;101563.34;5035474;28;20053;-71
2023/09/05 02:49:14;;;;;;;3.03;1.70;;;;;;;21.02;31.40;101561.66;5026076;28;20114;-71
2023/09/05 02:51:43;;;;;;;2.03;1.38;;;;;;;21.03;31.51;101562.47;5029889;28;20479;-72
2023/09/05 02:54:11;;;;;;;2.67;1.65;;;;;;;21.00;31.62;101565.66;5029722;28;20556;-71
2023/09/05 02:56:39;;;;;;;2.97;1.63;;;;;;;20.98;31.67;101559.41;5028507;28;20042;-71
2023/09/05 02:59:07;;;;;;;3.47;1.50;;;;;;;20.97;31.79;101561.31;5010465;28;20469;-72
2023/09/05 03:01:35;;;;;;;2.78;1.90;;;;;;;20.97;31.86;101557.66;5029697;28;20546;-71
2023/09/05 03:04:03;;;;;;;2.95;1.60;;;;;;;20.97;31.97;101563.22;5025418;28;20037;-71
2023/09/05 03:06:30;;;;;;;3.15;1.83;;;;;;;20.97;32.09;101569.66;5010866;28;20423;-72
2023/09/05 03:09:00;;;;;;;2.53;1.45;;;;;;;21.00;31.63;101574.00;5021715;28;20564;-72
2023/09/05 03:11:28;;;;;;;3.00;1.63;;;;;;;20.97;31.48;101568.81;5005612;28;20644;-73
2023/09/05 03:13:55;;;;;;;3.05;1.73;;;;;;;20.98;31.92;101568.63;5041528;28;20504;-71
2023/09/05 03:16:24;;;;;;;2.90;1.70;;;;;;;20.99;31.84;101567.56;5012749;28;20064;-73
2023/09/05 03:18:52;;;;;;;2.10;1.33;;;;;;;20.98;31.96;101562.19;5022144;28;20052;-73
2023/09/05 03:21:22;;;;;;;2.72;1.52;;;;;;;20.99;31.59;101564.78;5026729;28;20099;-73
2023/09/05 03:23:49;;;;;;;2.50;1.50;;;;;;;20.99;31.58;101569.50;5030536;28;20099;-73
2023/09/05 03:26:19;;;;;;;3.25;1.63;;;;;;;20.99;31.84;101567.56;5025001;28;20416;-70
2023/09/05 03:28:47;;;;;;;3.30;1.58;;;;;;;20.98;31.58;101567.75;5026025;28;20157;-73
2023/09/05 03:31:18;;;;;;;2.92;1.58;;;;;;;20.95;32.18;101577.31;5036857;28;20052;-72
2023/09/05 03:33:46;;;;;;;3.10;1.77;;;;;;;20.97;32.00;101572.44;5030235;28;20087;-73
2023/09/05 03:36:14;;;;;;;2.95;1.55;;;;;;;20.98;31.69;101574.19;5026029;28;20532;-73
2023/09/05 03:38:42;;;;;;;2.72;1.65;;;;;;;20.98;31.79;101570.53;5022333;28;20042;-73
2023/09/05 03:41:11;;;;;;;3.03;1.60;;;;;;;20.98;31.82;101571.41;5009140;28;20183;-73
2023/09/05 03:43:40;;;;;;;2.38;1.70;;;;;;;21.00;31.99;101574.88;5042389;28;20072;-70
2023/09/05 03:46:08;;;;;;;2.47;1.70;;;;;;;20.98;32.09;101573.31;5028777;28;20527;-72
2023/09/05 03:48:36;;;;;;;2.90;1.77;;;;;;;20.99;32.13;101566.69;5027490;28;20119;-70
2023/09/05 03:51:03;;;;;;;2.75;1.65;;;;;;;20.97;32.02;101561.31;5024552;28;20045;-73
2023/09/05 03:53:31;;;;;;;2.65;1.45;;;;;;;20.96;31.91;101558.72;5026988;28;20176;-73
2023/09/05 03:55:59;;;;;;;3.40;1.67;;;;;;;20.97;32.21;101560.44;5027911;28;20041;-70
2023/09/05 03:58:27;;;;;;;3.53;1.70;;;;;;;20.96;32.29;101550.38;5026915;28;20041;-73
2023/09/05 04:00:57;;;;;;;3.03;1.50;;;;;;;20.97;32.21;101564.09;5027256;28;20030;-73
2023/09/05 04:03:27;;;;;;;2.38;1.50;;;;;;;20.91;31.96;101555.63;5027245;28;20470;-73
2023/09/05 04:05:55;;;;;;;3.00;1.60;;;;;;;20.90;32.07;101557.56;5025573;28;20493;-73
2023/09/05 04:08:24;;;;;;;4.20;1.80;;;;;;;20.90;32.01;101563.13;5020723;28;20050;-74
2023/09/05 04:10:57;;;;;;;2.90;1.60;;;;;;;20.93;32.16;101554.41;5007723;28;20049;-73
2023/09/05 04:13:25;;;;;;;3.05;1.58;;;;;;;20.87;32.49;101554.25;5026557;28;20049;-73
2023/09/05 04:15:53;;;;;;;3.90;1.63;;;;;;;20.87;32.02;101549.56;5027668;28;20041;-73
2023/09/05 04:18:23;;;;;;;3.08;1.50;;;;;;;20.89;32.41;101557.72;5022855;28;20501;-73
2023/09/05 04:20:57;;;;;;;2.30;1.60;;;;;;;20.89;32.09;101555.81;5022794;28;20056;-76
2023/09/05 04:23:26;;;;;;;3.05;1.60;;;;;;;20.85;32.14;101548.91;5024467;28;20378;-74
2023/09/05 04:25:58;;;;;;;2.35;1.50;;;;;;;20.87;31.90;101549.56;5008305;28;20160;-74
2023/09/05 04:28:27;;;;;;;2.97;1.65;;;;;;;20.82;32.04;101554.84;5041479;22;20047;-70
2023/09/05 04:30:55;;;;;;;4.03;1.95;;;;;;;20.83;32.08;101555.69;5047209;28;20041;-71
2023/09/05 04:33:27;;;;;;;3.05;1.70;;;;;;;20.84;32.62;101558.31;5060170;28;20128;-70
2023/09/05 04:35:55;;;;;;;3.33;1.90;;;;;;;20.79;32.42;101563.53;5048568;28;20039;-70
2023/09/05 04:38:23;;;;;;;3.90;1.85;;;;;;;20.80;32.47;101559.69;5042555;28;20500;-72
2023/09/05 04:40:51;;;;;;;3.72;1.70;;;;;;;20.79;32.23;101563.53;5042617;28;20559;-70
2023/09/05 04:43:19;;;;;;;2.75;1.58;;;;;;;20.78;32.48;101565.44;5047771;28;20036;-71
2023/09/05 04:45:54;;;;;;;3.70;1.98;;;;;;;20.80;32.11;101553.28;5042894;28;20407;-71
2023/09/05 04:48:22;;;;;;;3.63;1.73;;;;;;;20.75;32.43;101565.84;5036014;28;20144;-71
2023/09/05 04:50:52;;;;;;;3.50;1.92;;;;;;;20.77;32.41;101565.66;5034756;28;20052;-70
2023/09/05 04:53:20;;;;;;;4.25;1.90;;;;;;;20.73;32.42;101562.38;5038322;28;20045;-72
2023/09/05 04:55:51;;;;;;;3.55;1.70;;;;;;;20.73;32.58;101559.59;5041434;28;20037;-69
2023/09/05 04:58:19;;;;;;;3.88;1.83;;;;;;;20.73;32.24;101567.06;5036879;28;20059;-70
2023/09/05 05:00:47;;;;;;;4.28;1.80;;;;;;;20.72;32.76;101571.75;5039460;28;20049;-71
2023/09/05 05:03:16;;;;;;;3.03;1.70;;;;;;;20.72;33.06;101568.97;5044362;28;20102;-63
2023/09/05 05:05:44;;;;;;;3.38;2.10;;;;;;;20.72;32.72;101570.88;5046133;28;20044;-64
2023/09/05 05:08:13;;;;;;;2.95;1.67;;;;;;;20.73;32.65;101573.50;5046550;28;20385;-61
2023/09/05 05:10:41;;;;;;;3.78;1.67;;;;;;;20.71;32.74;101580.28;5038200;28;20044;-64
2023/09/05 05:13:09;;;;;;;3.83;1.90;;;;;;;20.72;33.03;101579.22;5031904;28;20072;-62
2023/09/05 05:15:37;;;;;;;4.18;1.75;;;;;;;20.70;33.08;101572.97;5043179;28;21029;-62
2023/09/05 05:18:05;;;;;;;3.47;1.67;;;;;;;20.71;33.04;101577.50;5042995;28;20072;-63
2023/09/05 05:20:37;;;;;;;2.90;1.80;;;;;;;20.69;32.79;101583.28;5039354;28;20128;-64
2023/09/05 05:23:06;;;;;;;3.13;1.85;;;;;;;20.70;32.92;101586.88;5036802;28;20048;-64
2023/09/05 05:25:35;;;;;;;3.92;1.80;;;;;;;20.69;32.66;101588.84;5029108;28;20045;-66
2023/09/05 05:28:04;;;;;;;4.95;1.92;;;;;;;20.65;32.98;101590.22;5049705;28;20120;-63
2023/09/05 05:30:35;;;;;;;3.58;1.90;;;;;;;20.68;33.17;101597.34;5034570;28;20599;-61
2023/09/05 05:33:03;;;;;;;3.60;1.67;;;;;;;20.63;32.79;101594.25;5036075;28;21013;-60
2023/09/05 05:35:31;;;;;;;2.92;1.63;;;;;;;20.62;33.21;101600.84;5037894;28;20080;-62
2023/09/05 05:37:59;;;;;;;3.75;1.75;;;;;;;20.61;32.99;101596.34;5044262;28;20045;-59
2023/09/05 05:40:27;;;;;;;3.85;2.00;;;;;;;20.60;33.10;101603.84;5037519;28;20065;-62
2023/09/05 05:42:56;;;;;;;3.05;1.90;;;;;;;20.61;33.25;101602.75;5038948;28;20045;-60
2023/09/05 05:45:24;;;;;;;2.88;1.95;;;;;;;20.58;32.95;101605.03;5030360;28;20046;-64
2023/09/05 05:47:55;;;;;;;3.30;1.90;;;;;;;20.57;33.43;101606.06;5027262;28;20120;-62
2023/09/05 05:50:23;;;;;;;2.72;1.83;;;;;;;20.57;33.05;101608.84;5045730;28;20075;-62
2023/09/05 05:52:51;;;;;;;3.80;1.90;;;;;;;20.56;33.37;101607.13;5048895;28;20037;-63
2023/09/05 05:55:19;;;;;;;3.58;1.92;;;;;;;20.55;33.30;101609.03;5048574;28;20053;-64
2023/09/05 05:57:47;;;;;;;3.38;2.00;;;;;;;20.55;33.39;101610.94;5049169;28;20131;-62
2023/09/05 06:00:18;;;;;;;4.28;2.00;;;;;;;20.57;33.05;101614.41;5048071;28;20480;-61
2023/09/05 06:02:46;;;;;;;3.35;1.77;;;;;;;20.54;33.59;101611.97;5047569;28;20044;-62
2023/09/05 06:05:14;;;;;;;3.13;1.73;;;;;;;20.55;33.56;101622.94;5048201;28;20041;-61
2023/09/05 06:07:42;;;;;;;4.15;2.13;;;;;;;20.56;33.64;101623.78;5047974;28;20784;-62
2023/09/05 06:10:10;;;;;;;3.55;1.77;;;;;;;20.57;33.43;101619.97;5048893;28;20107;-62
2023/09/05 06:12:38;;;;;;;3.53;1.70;;;;;;;20.59;33.94;101620.69;5048465;28;20045;-62
2023/09/05 06:15:07;;;;;;;3.13;1.80;;;;;;;20.61;33.82;101625.00;5047900;28;20040;-62
2023/09/05 06:17:36;;;;;;;2.30;1.50;;;;;;;20.62;33.94;101618.41;5048027;28;20048;-62
2023/09/05 06:20:05;;;;;;;3.47;1.80;;;;;;;20.64;33.69;101623.78;5048225;28;20091;-62
2023/09/05 06:22:33;;;;;;;3.47;1.95;;;;;;;20.65;34.02;101622.75;5048375;28;20049;-62
2023/09/05 06:25:05;;;;;;;3.67;2.10;;;;;;;20.67;33.99;101620.66;5048156;28;20049;-60
2023/09/05 06:27:33;;;;;;;2.90;1.65;;;;;;;20.67;34.31;101627.09;5042801;28;20165;-59
2023/09/05 06:30:01;;;;;;;3.55;1.73;;;;;;;20.72;33.90;101629.31;5042633;28;20045;-62
2023/09/05 06:32:30;;;;;;;3.95;2.50;;;;;;;20.74;34.01;101625.31;5048106;28;20152;-62
2023/09/05 06:34:59;;;;;;;3.45;2.10;;;;;;;20.78;33.99;101623.88;5047847;28;20045;-62
2023/09/05 06:37:28;;;;;;;3.15;1.80;;;;;;;20.79;33.83;101627.53;5048144;28;20041;-63
2023/09/05 06:39:57;;;;;;;2.53;1.67;;;;;;;20.81;33.75;101628.22;5036565;28;20080;-61
2023/09/05 06:42:25;;;;;;;2.90;1.58;;;;;;;20.83;34.13;101626.13;5028519;28;20095;-62
2023/09/05 06:44:53;;;;;;;2.53;1.60;;;;;;;20.86;33.89;101622.94;5043032;28;20062;-63
2023/09/05 06:47:20;;;;;;;3.08;1.80;;;;;;;20.88;33.89;101620.84;5047416;28;20529;-65
2023/09/05 06:49:49;;;;;;;3.25;1.70;;;;;;;20.91;33.82;101622.41;5020089;28;20115;-66
2023/09/05 06:52:18;;;;;;;3.70;1.90;;;;;;;20.97;33.82;101621.66;5040135;28;20538;-66
2023/09/05 06:54:46;;;;;;;3.22;2.00;;;;;;;20.98;33.54;101623.41;5042450;28;20067;-66
2023/09/05 06:57:15;;;;;;;3.03;1.80;;;;;;;21.02;33.63;101631.22;5038623;28;20068;-66
2023/09/05 06:59:43;;;;;;;3.80;1.80;;;;;;;21.04;33.85;101629.09;5034837;28;20037;-66
2023/09/05 07:02:11;;;;;;;3.15;1.90;;;;;;;21.09;33.63;101629.44;5036625;28;20043;-62
2023/09/05 07:04:39;;;;;;;3.28;1.73;;;;;;;21.15;33.68;101625.91;5038229;28;20044;-67
2023/09/05 07:07:08;;;;;;;3.55;1.80;;;;;;;21.22;33.91;101625.16;5037860;28;20100;-67
2023/09/05 07:09:37;;;;;;;2.97;1.83;;;;;;;21.32;33.63;101629.44;5035223;28;20041;-66
2023/09/05 07:12:07;;;;;;;3.45;1.83;;;;;;;21.39;33.58;101627.66;5036497;28;20041;-66
2023/09/05 07:14:35;;;;;;;2.75;1.70;;;;;;;21.47;33.90;101635.06;5038047;28;21695;-66
2023/09/05 07:17:06;;;;;;;3.25;2.00;;;;;;;21.56;33.58;101631.16;5037257;28;20719;-66
2023/09/05 07:19:34;;;;;;;3.60;2.00;;;;;;;21.66;33.48;101636.47;5037647;28;20492;-66
2023/09/05 07:22:02;;;;;;;3.47;1.90;;;;;;;21.76;33.45;101639.84;5039455;28;20538;-66
2023/09/05 07:24:30;;;;;;;3.35;1.92;;;;;;;21.85;33.26;101641.47;5040646;28;20106;-67
2023/09/05 07:26:59;;;;;;;2.72;1.67;;;;;;;21.97;33.04;101639.13;5038679;28;20052;-62
2023/09/05 07:29:27;;;;;;;3.05;2.03;;;;;;;22.04;32.91;101638.19;5042555;28;20102;-63
2023/09/05 07:31:55;;;;;;;3.03;1.67;;;;;;;22.12;32.71;101635.31;5041671;28;20132;-74
2023/09/05 07:34:23;;;;;;;3.35;1.52;;;;;;;22.22;32.78;101640.59;5040184;28;20071;-72
2023/09/05 07:36:51;;;;;;;3.47;1.92;;;;;;;22.32;32.45;101643.97;5041414;28;20052;-73
2023/09/05 07:39:19;;;;;;;3.05;1.63;;;;;;;22.41;32.49;101631.66;5043899;28;20044;-73
2023/09/05 07:41:47;;;;;;;2.72;1.67;;;;;;;22.51;32.43;101643.34;5049780;28;20128;-70
2023/09/05 07:44:17;;;;;;;3.45;1.77;;;;;;;22.62;32.11;101644.81;5031922;28;20037;-70
2023/09/05 07:46:45;;;;;;;3.53;2.10;;;;;;;22.69;32.29;101642.97;5050283;28;20074;-70
2023/09/05 07:49:13;;;;;;;3.03;1.88;;;;;;;22.77;31.94;101631.69;5031806;28;20041;-70
2023/09/05 07:51:40;;;;;;;2.95;1.70;;;;;;;22.85;31.88;101639.97;5048914;28;20049;-70
2023/09/05 07:54:10;;;;;;;2.88;1.65;;;;;;;22.94;31.94;101632.31;5050755;28;20049;-70
2023/09/05 07:56:39;;;;;;;3.58;1.80;;;;;;;23.01;31.74;101628.53;5050630;28;20504;-70
2023/09/05 07:59:07;;;;;;;3.97;1.92;;;;;;;23.09;31.66;101627.56;5050587;28;20037;-70
2023/09/05 08:01:37;;;;;;;3.17;1.80;;;;;;;23.19;31.40;101630.06;5050726;28;20131;-70
2023/09/05 08:04:05;;;;;;;4.35;1.98;;;;;;;23.25;31.35;101632.91;5050879;28;20041;-71
2023/09/05 08:06:33;;;;;;;3.22;1.85;;;;;;;23.33;31.43;101634.72;5050184;28;20041;-70
2023/09/05 08:09:01;;;;;;;3.45;2.05;;;;;;;23.40;31.23;101638.44;5034516;28;20037;-70
2023/09/05 08:11:29;;;;;;;3.75;1.90;;;;;;;23.45;31.03;101627.53;5037478;28;20128;-70
2023/09/05 08:13:57;;;;;;;3.13;1.80;;;;;;;23.52;30.91;101622.84;5037872;28;20079;-70
2023/09/05 08:16:25;;;;;;;3.38;1.70;;;;;;;23.61;30.84;101623.59;5048166;28;20478;-70
2023/09/05 08:18:54;;;;;;;3.25;1.55;;;;;;;23.69;30.81;101634.59;5042915;28;20558;-70
2023/09/05 08:21:22;;;;;;;3.00;1.77;;;;;;;23.72;30.48;101625.84;5050156;28;20055;-69
2023/09/05 08:23:51;;;;;;;3.58;1.95;;;;;;;23.78;30.44;101630.63;5049863;28;20131;-70
2023/09/05 08:26:19;;;;;;;3.85;1.98;;;;;;;23.84;30.48;101626.16;5050748;28;20056;-70
2023/09/05 08:28:47;;;;;;;3.28;2.00;;;;;;;23.88;30.41;101622.75;5048775;28;20072;-70
2023/09/05 08:31:15;;;;;;;3.05;1.67;;;;;;;23.94;30.50;101619.13;5046897;28;20622;-70
2023/09/05 08:33:46;;;;;;;3.25;1.73;;;;;;;24.01;30.56;101620.03;5037822;28;20049;-71
2023/09/05 08:36:15;;;;;;;3.35;1.80;;;;;;;24.08;30.06;101611.69;5040364;28;20088;-71
2023/09/05 08:38:43;;;;;;;2.92;1.67;;;;;;;24.12;30.41;101613.03;5049596;28;20033;-71
2023/09/05 08:41:11;;;;;;;3.28;1.90;;;;;;;24.18;30.19;101616.94;5046502;28;20037;-70
2023/09/05 08:43:39;;;;;;;2.53;1.67;;;;;;;24.23;30.06;101618.06;5028179;28;20037;-70
2023/09/05 08:46:07;;;;;;;3.72;2.47;;;;;;;24.29;29.92;101621.94;5034747;28;20109;-70
2023/09/05 08:48:35;;;;;;;3.60;1.85;;;;;;;24.33;29.76;101607.31;5049161;28;20092;-70
2023/09/05 08:51:26;;;;;;;3.20;1.83;;;;;;;24.39;29.80;101606.56;5042672;28;20561;-70
2023/09/05 08:53:57;;;;;;;3.00;1.90;;;;;;;24.44;29.76;101603.97;5044437;28;20555;-71
2023/09/05 08:56:26;;;;;;;2.85;1.70;;;;;;;24.49;29.74;101603.34;5049810;28;20045;-71
2023/09/05 08:58:56;;;;;;;3.22;1.73;;;;;;;24.55;29.92;101598.88;5049126;28;20040;-70
2023/09/05 09:01:25;;;;;;;3.45;1.90;;;;;;;24.58;29.78;101595.63;5050242;28;20540;-72
2023/09/05 09:03:55;;;;;;;4.32;2.03;;;;;;;24.63;29.50;101596.75;5043946;28;20069;-72
2023/09/05 09:06:25;;;;;;;3.45;1.80;;;;;;;24.69;29.28;101583.84;5043805;28;20053;-72
2023/09/05 09:08:54;;;;;;;4.32;1.77;;;;;;;24.69;29.03;101586.63;5047051;28;20041;-71
2023/09/05 09:11:23;;;;;;;3.15;1.63;;;;;;;24.74;29.17;101584.91;5048272;28;20045;-72
2023/09/05 09:13:58;;;;;;;2.80;1.70;;;;;;;24.80;29.03;101594.44;5047523;28;20044;-72
2023/09/05 09:16:27;;;;;;;2.42;1.63;;;;;;;24.81;29.38;101590.56;5044325;28;20526;-72
2023/09/05 09:19:04;;;;;;;2.80;1.80;;;;;;;24.88;28.76;101581.09;5045927;28;20052;-72
2023/09/05 09:21:35;;;;;;;2.45;1.55;;;;;;;24.93;29.30;101596.41;5044468;28;20119;-73
2023/09/05 09:24:08;;;;;;;2.63;1.63;;;;;;;24.99;29.06;101606.78;5046013;28;20396;-72
2023/09/05 09:26:38;;;;;;;3.03;1.58;;;;;;;25.02;28.98;101606.38;5044130;28;20294;-73
2023/09/05 09:29:08;;;;;;;2.78;1.70;;;;;;;25.08;29.07;101586.75;5044810;28;20089;-72
2023/09/05 09:31:37;;;;;;;2.85;1.77;;;;;;;25.12;28.93;101592.81;5047212;28;20091;-71
2023/09/05 09:34:07;;;;;;;3.00;1.63;;;;;;;25.18;28.88;101587.22;5047517;28;20055;-72
2023/09/05 09:36:37;;;;;;;3.33;1.95;;;;;;;25.25;28.87;101595.63;5047559;28;20056;-72
2023/09/05 09:39:09;;;;;;;2.97;1.60;;;;;;;25.31;28.72;101596.72;5045460;28;20569;-72
2023/09/05 09:41:43;;;;;;;3.03;1.80;;;;;;;25.36;28.47;101591.34;5047376;28;20428;-71
2023/09/05 09:44:25;;;;;;;3.13;1.60;;;;;;;25.42;28.69;101582.06;5046924;28;20051;-73
2023/09/05 09:46:54;;;;;;;2.20;1.45;;;;;;;25.44;28.82;101585.50;5047594;28;20047;-71
2023/09/05 09:49:23;;;;;;;2.38;1.63;;;;;;;25.54;28.62;101586.00;5042970;28;20112;-72
2023/09/05 09:51:55;;;;;;;3.72;1.77;;;;;;;25.61;28.40;101592.44;5038972;28;20228;-72
2023/09/05 09:54:31;;;;;;;2.95;1.58;;;;;;;25.64;28.04;101581.66;5047657;28;20045;-72
2023/09/05 09:57:04;;;;;;;3.58;1.42;;;;;;;25.69;28.50;101581.00;5044822;28;20045;-72
2023/09/05 09:59:35;;;;;;;2.60;1.58;;;;;;;25.76;28.66;101583.81;5046059;28;20103;-72
2023/09/05 10:02:07;;;;;;;2.55;1.40;;;;;;;25.81;28.30;101589.59;5043493;28;20047;-72
2023/09/05 10:04:39;;;;;;;2.30;1.60;;;;;;;25.87;28.33;101583.16;5045464;28;20049;-72
2023/09/05 10:07:14;;;;;;;4.00;1.80;;;;;;;25.96;28.41;101587.44;5043322;28;20539;-70
2023/09/05 10:09:45;;;;;;;3.65;1.50;;;;;;;26.00;28.31;101574.69;5047902;28;20114;-72
2023/09/05 10:12:18;;;;;;;2.42;1.55;;;;;;;26.07;28.46;101577.50;5046493;28;20041;-71
2023/09/05 10:14:48;;;;;;;2.53;1.75;;;;;;;26.11;28.35;101584.41;5046526;28;20757;-72
2023/09/05 10:17:16;;;;;;;2.90;1.55;;;;;;;26.18;28.29;101572.09;5045005;28;20045;-71
2023/09/05 10:19:46;;;;;;;2.45;1.58;;;;;;;26.23;28.11;101575.09;5042366;28;20060;-72
2023/09/05 10:22:18;;;;;;;3.40;1.50;;;;;;;26.30;28.11;101564.69;5042755;28;20122;-72
2023/09/05 10:24:47;;;;;;;2.70;1.40;;;;;;;26.33;27.89;101560.59;5041614;28;20060;-72
2023/09/05 10:27:15;;;;;;;2.13;1.48;;;;;;;26.38;27.91;101570.06;5046306;28;20041;-72
2023/09/05 10:29:45;;;;;;;2.65;1.70;;;;;;;26.42;27.88;101559.25;5044828;28;20151;-72
2023/09/05 10:32:15;;;;;;;2.83;1.80;;;;;;;26.49;28.23;101560.09;5040625;28;20045;-73
2023/09/05 10:35:02;;;;;;;3.08;1.58;;;;;;;26.53;27.73;101549.28;5045874;28;20052;-71
2023/09/05 10:37:59;;;;;;;2.20;1.60;;;;;;;26.59;28.03;101559.63;5040530;28;20488;-71
2023/09/05 10:40:34;;;;;;;2.65;1.60;;;;;;;26.65;27.64;101558.75;5039671;28;20041;-71
2023/09/05 10:43:05;;;;;;;2.17;1.40;;;;;;;26.69;28.12;101563.72;5047304;28;20052;-71
2023/09/05 10:45:34;;;;;;;2.08;1.50;;;;;;;26.75;28.00;101573.16;5044471;28;20073;-71
2023/09/05 10:48:07;;;;;;;2.55;1.50;;;;;;;26.82;28.01;101570.31;5045652;28;20049;-71
2023/09/05 10:51:07;;;;;;;2.60;1.50;;;;;;;26.87;27.59;101568.56;5053574;28;20128;-72
2023/09/05 10:53:38;;;;;;;3.13;1.60;;;;;;;26.94;28.05;101571.34;5035845;28;20052;-73
2023/09/05 10:56:06;;;;;;;3.10;1.55;;;;;;;26.98;27.86;101565.03;5046639;28;20037;-73
2023/09/05 10:58:43;;;;;;;2.63;1.63;;;;;;;27.08;27.47;101578.59;5048878;28;20037;-73
2023/09/05 11:01:45;;;;;;;2.35;1.40;;;;;;;27.10;27.49;101565.19;5045295;28;20045;-73
2023/09/05 11:04:24;;;;;;;2.00;1.25;;;;;;;27.18;27.23;101562.13;5042171;28;20073;-73
2023/09/05 11:06:57;;;;;;;2.50;1.52;;;;;;;27.25;27.01;101557.31;5046957;28;20082;-73
2023/09/05 11:09:27;;;;;;;4.03;1.67;;;;;;;27.29;26.87;101560.50;5046489;28;20049;-73
2023/09/05 11:11:55;;;;;;;3.30;1.42;;;;;;;27.33;27.13;101553.34;5049797;28;20135;-73
2023/09/05 11:14:34;;;;;;;2.67;1.52;;;;;;;27.41;27.11;101547.44;5047928;28;20044;-73
2023/09/05 11:17:02;;;;;;;2.75;1.27;;;;;;;27.44;27.46;101544.19;5045013;28;20048;-73
2023/09/05 11:19:39;;;;;;;2.20;1.38;;;;;;;27.52;26.91;101543.03;5042385;28;20053;-73
2023/09/05 11:22:14;;;;;;;2.58;1.40;;;;;;;27.57;27.11;101541.25;5043336;28;20044;-73
2023/09/05 11:24:48;;;;;;;2.13;1.40;;;;;;;27.64;26.35;101546.78;5042257;28;20420;-74
2023/09/05 11:27:18;;;;;;;2.22;1.40;;;;;;;27.68;26.61;101548.06;5040192;28;20407;-73
2023/09/05 11:29:49;;;;;;;2.38;1.40;;;;;;;27.70;26.32;101540.25;5047107;28;20068;-73
2023/09/05 11:32:17;;;;;;;2.40;1.40;;;;;;;27.75;26.47;101532.88;5039929;28;20581;-73
2023/09/05 11:34:47;;;;;;;2.35;1.40;;;;;;;27.82;26.21;101527.16;5040775;28;20053;-73
2023/09/05 11:37:19;;;;;;;2.03;1.10;;;;;;;27.86;25.83;101520.00;5049943;28;20114;-73